Terminal Aerodrome Forecast
Issued by NWS Burlington, VT

Home | Current Version | Previous Version | Text Only | Print | Product List | Glossary On
Versions: 1 2 3 4 5 6 7 8 9 10 11 12 13 14 15 16 17 18 19 20 21 22 23 24
000
FTUS41 KBTV 021738
TAFBTV
TAF
KBTV 021738Z 0218/0318 VRB03KT P6SM SCT025 BKN050
     FM030100 35007KT P6SM BKN025 BKN035
     FM030300 VRB03KT 1SM BR OVC010
     FM031300 VRB05KT P6SM FEW040 SCT090=

USA.gov is the U.S. government's official web portal to all federal, state and local government web resources and services.